sensor_id;sensor_type;location;lat;lon;timestamp;P1;durP1;ratioP1;P2;durP2;ratioP2
12312;SDS011;6220;53.580;9.758;2022-10-16T00:00:34;9.97;;;8.40;;
12312;SDS011;6220;53.580;9.758;2022-10-16T00:03:01;9.80;;;8.40;;
12312;SDS011;6220;53.580;9.758;2022-10-16T00:05:26;9.63;;;8.70;;
12312;SDS011;6220;53.580;9.758;2022-10-16T00:07:52;9.53;;;8.50;;
12312;SDS011;6220;53.580;9.758;2022-10-16T00:10:17;11.50;;;8.80;;
12312;SDS011;6220;53.580;9.758;2022-10-16T00:12:43;8.73;;;7.83;;
12312;SDS011;6220;53.580;9.758;2022-10-16T00:15:08;9.27;;;7.73;;
12312;SDS011;6220;53.580;9.758;2022-10-16T00:17:34;10.30;;;7.63;;
12312;SDS011;6220;53.580;9.758;2022-10-16T00:19:59;8.13;;;6.70;;
12312;SDS011;6220;53.580;9.758;2022-10-16T00:22:24;9.40;;;7.47;;
12312;SDS011;6220;53.580;9.758;2022-10-16T00:24:50;7.03;;;6.20;;
12312;SDS011;6220;53.580;9.758;2022-10-16T00:27:15;7.73;;;6.80;;
12312;SDS011;6220;53.580;9.758;2022-10-16T00:29:41;8.30;;;6.27;;
12312;SDS011;6220;53.580;9.758;2022-10-16T00:32:07;6.20;;;5.50;;
12312;SDS011;6220;53.580;9.758;2022-10-16T00:34:32;10.73;;;5.53;;
12312;SDS011;6220;53.580;9.758;2022-10-16T00:36:57;6.83;;;4.57;;
12312;SDS011;6220;53.580;9.758;2022-10-16T00:39:23;5.40;;;4.90;;
12312;SDS011;6220;53.580;9.758;2022-10-16T00:41:49;8.87;;;5.00;;
12312;SDS011;6220;53.580;9.758;2022-10-16T00:47:10;6.97;;;4.63;;
12312;SDS011;6220;53.580;9.758;2022-10-16T00:49:38;5.53;;;4.43;;
12312;SDS011;6220;53.580;9.758;2022-10-16T00:52:04;4.27;;;3.87;;
12312;SDS011;6220;53.580;9.758;2022-10-16T00:54:30;6.40;;;4.20;;
12312;SDS011;6220;53.580;9.758;2022-10-16T00:56:57;5.07;;;4.57;;
12312;SDS011;6220;53.580;9.758;2022-10-16T00:59:29;4.40;;;3.90;;
12312;SDS011;6220;53.580;9.758;2022-10-16T01:01:56;6.40;;;4.03;;
12312;SDS011;6220;53.580;9.758;2022-10-16T01:04:22;7.23;;;4.43;;
12312;SDS011;6220;53.580;9.758;2022-10-16T01:09:37;4.90;;;3.60;;
12312;SDS011;6220;53.580;9.758;2022-10-16T01:12:26;5.70;;;3.93;;
12312;SDS011;6220;53.580;9.758;2022-10-16T01:15:04;5.17;;;3.40;;
12312;SDS011;6220;53.580;9.758;2022-10-16T01:17:33;5.67;;;3.70;;
12312;SDS011;6220;53.580;9.758;2022-10-16T01:22:43;5.03;;;3.40;;
12312;SDS011;6220;53.580;9.758;2022-10-16T01:25:23;5.97;;;3.30;;
12312;SDS011;6220;53.580;9.758;2022-10-16T01:27:53;7.03;;;3.70;;
12312;SDS011;6220;53.580;9.758;2022-10-16T01:32:52;8.57;;;3.43;;
12312;SDS011;6220;53.580;9.758;2022-10-16T01:35:25;6.83;;;3.27;;
12312;SDS011;6220;53.580;9.758;2022-10-16T01:40:46;4.73;;;3.07;;
12312;SDS011;6220;53.580;9.758;2022-10-16T01:43:16;6.17;;;3.10;;
12312;SDS011;6220;53.580;9.758;2022-10-16T01:45:44;3.67;;;2.80;;
12312;SDS011;6220;53.580;9.758;2022-10-16T01:48:10;7.30;;;3.30;;
12312;SDS011;6220;53.580;9.758;2022-10-16T01:50:38;7.10;;;2.90;;
12312;SDS011;6220;53.580;9.758;2022-10-16T01:53:08;3.83;;;3.00;;
12312;SDS011;6220;53.580;9.758;2022-10-16T01:55:38;4.80;;;2.93;;
12312;SDS011;6220;53.580;9.758;2022-10-16T01:58:08;5.00;;;2.80;;
12312;SDS011;6220;53.580;9.758;2022-10-16T02:00:36;3.60;;;2.37;;
12312;SDS011;6220;53.580;9.758;2022-10-16T02:03:03;4.77;;;2.53;;
12312;SDS011;6220;53.580;9.758;2022-10-16T02:08:09;5.43;;;2.80;;
12312;SDS011;6220;53.580;9.758;2022-10-16T02:10:34;3.70;;;2.80;;
12312;SDS011;6220;53.580;9.758;2022-10-16T02:13:02;3.67;;;2.47;;
12312;SDS011;6220;53.580;9.758;2022-10-16T02:15:28;5.67;;;2.40;;
12312;SDS011;6220;53.580;9.758;2022-10-16T02:17:53;4.07;;;2.47;;
12312;SDS011;6220;53.580;9.758;2022-10-16T02:20:19;3.77;;;2.60;;
12312;SDS011;6220;53.580;9.758;2022-10-16T02:22:48;6.63;;;2.63;;
12312;SDS011;6220;53.580;9.758;2022-10-16T02:30:42;2.30;;;2.10;;
12312;SDS011;6220;53.580;9.758;2022-10-16T02:33:10;4.40;;;2.17;;
12312;SDS011;6220;53.580;9.758;2022-10-16T02:35:38;6.40;;;2.90;;
12312;SDS011;6220;53.580;9.758;2022-10-16T02:38:04;3.07;;;2.17;;
12312;SDS011;6220;53.580;9.758;2022-10-16T02:40:31;5.57;;;2.10;;
12312;SDS011;6220;53.580;9.758;2022-10-16T02:42:56;2.20;;;2.00;;
12312;SDS011;6220;53.580;9.758;2022-10-16T02:45:22;2.97;;;1.90;;
12312;SDS011;6220;53.580;9.758;2022-10-16T02:47:48;4.60;;;2.30;;
12312;SDS011;6220;53.580;9.758;2022-10-16T02:50:13;4.93;;;1.97;;
12312;SDS011;6220;53.580;9.758;2022-10-16T02:52:39;2.50;;;2.07;;
12312;SDS011;6220;53.580;9.758;2022-10-16T02:55:04;5.37;;;2.33;;
12312;SDS011;6220;53.580;9.758;2022-10-16T02:57:30;5.40;;;2.20;;
12312;SDS011;6220;53.580;9.758;2022-10-16T02:59:56;4.47;;;2.13;;
12312;SDS011;6220;53.580;9.758;2022-10-16T03:02:21;5.20;;;2.60;;
12312;SDS011;6220;53.580;9.758;2022-10-16T03:04:46;3.33;;;1.73;;
12312;SDS011;6220;53.580;9.758;2022-10-16T03:07:12;5.70;;;2.07;;
12312;SDS011;6220;53.580;9.758;2022-10-16T03:09:37;5.70;;;1.97;;
12312;SDS011;6220;53.580;9.758;2022-10-16T03:12:03;3.63;;;2.20;;
12312;SDS011;6220;53.580;9.758;2022-10-16T03:14:28;6.57;;;2.80;;
12312;SDS011;6220;53.580;9.758;2022-10-16T03:16:53;3.03;;;2.40;;
12312;SDS011;6220;53.580;9.758;2022-10-16T03:19:19;6.60;;;3.00;;
12312;SDS011;6220;53.580;9.758;2022-10-16T03:21:44;3.50;;;2.40;;
12312;SDS011;6220;53.580;9.758;2022-10-16T03:24:10;6.30;;;2.60;;
12312;SDS011;6220;53.580;9.758;2022-10-16T03:26:35;3.63;;;2.27;;
12312;SDS011;6220;53.580;9.758;2022-10-16T03:29:00;6.33;;;3.07;;
12312;SDS011;6220;53.580;9.758;2022-10-16T03:31:28;3.13;;;2.20;;
12312;SDS011;6220;53.580;9.758;2022-10-16T03:33:56;4.07;;;2.60;;
12312;SDS011;6220;53.580;9.758;2022-10-16T03:36:22;3.60;;;2.50;;
12312;SDS011;6220;53.580;9.758;2022-10-16T03:38:47;3.97;;;2.53;;
12312;SDS011;6220;53.580;9.758;2022-10-16T03:41:12;4.07;;;2.57;;
12312;SDS011;6220;53.580;9.758;2022-10-16T03:43:38;3.47;;;2.77;;
12312;SDS011;6220;53.580;9.758;2022-10-16T03:46:03;5.37;;;2.50;;
12312;SDS011;6220;53.580;9.758;2022-10-16T03:48:29;6.07;;;2.77;;
12312;SDS011;6220;53.580;9.758;2022-10-16T03:50:54;4.23;;;2.47;;
12312;SDS011;6220;53.580;9.758;2022-10-16T03:53:20;4.20;;;2.20;;
12312;SDS011;6220;53.580;9.758;2022-10-16T03:55:45;4.70;;;2.33;;
12312;SDS011;6220;53.580;9.758;2022-10-16T03:58:11;5.00;;;2.57;;
12312;SDS011;6220;53.580;9.758;2022-10-16T04:00:40;3.03;;;2.50;;
12312;SDS011;6220;53.580;9.758;2022-10-16T04:03:08;5.00;;;2.53;;
12312;SDS011;6220;53.580;9.758;2022-10-16T04:05:34;6.37;;;2.80;;
12312;SDS011;6220;53.580;9.758;2022-10-16T04:07:59;3.97;;;2.50;;
12312;SDS011;6220;53.580;9.758;2022-10-16T04:10:25;2.37;;;1.90;;
12312;SDS011;6220;53.580;9.758;2022-10-16T04:12:50;5.33;;;2.10;;
12312;SDS011;6220;53.580;9.758;2022-10-16T04:15:15;4.93;;;2.83;;
12312;SDS011;6220;53.580;9.758;2022-10-16T04:17:41;7.43;;;2.73;;
12312;SDS011;6220;53.580;9.758;2022-10-16T04:20:06;5.80;;;2.67;;
12312;SDS011;6220;53.580;9.758;2022-10-16T04:22:32;5.73;;;2.60;;
12312;SDS011;6220;53.580;9.758;2022-10-16T04:24:57;7.40;;;2.70;;
12312;SDS011;6220;53.580;9.758;2022-10-16T04:27:22;2.63;;;2.13;;
12312;SDS011;6220;53.580;9.758;2022-10-16T04:29:48;5.47;;;2.53;;
12312;SDS011;6220;53.580;9.758;2022-10-16T04:32:13;5.73;;;2.57;;
12312;SDS011;6220;53.580;9.758;2022-10-16T04:34:39;5.53;;;2.53;;
12312;SDS011;6220;53.580;9.758;2022-10-16T04:37:05;3.63;;;2.20;;
12312;SDS011;6220;53.580;9.758;2022-10-16T04:39:30;4.83;;;2.50;;
12312;SDS011;6220;53.580;9.758;2022-10-16T04:41:56;3.70;;;2.17;;
12312;SDS011;6220;53.580;9.758;2022-10-16T04:44:21;8.53;;;2.10;;
12312;SDS011;6220;53.580;9.758;2022-10-16T04:46:47;4.30;;;2.20;;
12312;SDS011;6220;53.580;9.758;2022-10-16T04:49:12;9.43;;;2.70;;
12312;SDS011;6220;53.580;9.758;2022-10-16T04:51:38;5.60;;;2.40;;
12312;SDS011;6220;53.580;9.758;2022-10-16T04:54:03;6.47;;;2.50;;
12312;SDS011;6220;53.580;9.758;2022-10-16T04:56:28;4.43;;;2.37;;
12312;SDS011;6220;53.580;9.758;2022-10-16T04:58:54;5.37;;;2.53;;
12312;SDS011;6220;53.580;9.758;2022-10-16T05:01:19;6.63;;;2.37;;
12312;SDS011;6220;53.580;9.758;2022-10-16T05:03:44;6.47;;;2.50;;
12312;SDS011;6220;53.580;9.758;2022-10-16T05:06:10;6.30;;;2.77;;
12312;SDS011;6220;53.580;9.758;2022-10-16T05:08:36;7.87;;;2.60;;
12312;SDS011;6220;53.580;9.758;2022-10-16T05:11:01;3.23;;;2.70;;
12312;SDS011;6220;53.580;9.758;2022-10-16T05:13:27;6.23;;;2.70;;
12312;SDS011;6220;53.580;9.758;2022-10-16T05:15:52;5.20;;;2.87;;
12312;SDS011;6220;53.580;9.758;2022-10-16T05:18:17;7.73;;;3.67;;
12312;SDS011;6220;53.580;9.758;2022-10-16T05:20:43;6.77;;;3.43;;
12312;SDS011;6220;53.580;9.758;2022-10-16T05:23:08;7.63;;;3.50;;
12312;SDS011;6220;53.580;9.758;2022-10-16T05:25:35;7.17;;;3.67;;
12312;SDS011;6220;53.580;9.758;2022-10-16T05:28:00;7.83;;;3.53;;
12312;SDS011;6220;53.580;9.758;2022-10-16T05:30:26;4.43;;;3.37;;
12312;SDS011;6220;53.580;9.758;2022-10-16T05:32:51;5.37;;;3.77;;
12312;SDS011;6220;53.580;9.758;2022-10-16T05:35:17;6.63;;;3.90;;
12312;SDS011;6220;53.580;9.758;2022-10-16T05:37:43;7.17;;;3.93;;
12312;SDS011;6220;53.580;9.758;2022-10-16T05:40:08;7.50;;;4.13;;
12312;SDS011;6220;53.580;9.758;2022-10-16T05:42:34;8.00;;;4.00;;
12312;SDS011;6220;53.580;9.758;2022-10-16T05:44:59;6.07;;;4.10;;
12312;SDS011;6220;53.580;9.758;2022-10-16T05:47:25;8.57;;;3.80;;
12312;SDS011;6220;53.580;9.758;2022-10-16T05:49:50;9.17;;;4.00;;
12312;SDS011;6220;53.580;9.758;2022-10-16T05:52:16;8.03;;;4.67;;
12312;SDS011;6220;53.580;9.758;2022-10-16T05:54:41;6.73;;;4.13;;
12312;SDS011;6220;53.580;9.758;2022-10-16T05:57:06;6.50;;;4.17;;
12312;SDS011;6220;53.580;9.758;2022-10-16T05:59:32;7.13;;;4.60;;
12312;SDS011;6220;53.580;9.758;2022-10-16T06:01:57;5.60;;;3.73;;
12312;SDS011;6220;53.580;9.758;2022-10-16T06:04:22;7.93;;;4.53;;
12312;SDS011;6220;53.580;9.758;2022-10-16T06:06:48;9.00;;;4.27;;
12312;SDS011;6220;53.580;9.758;2022-10-16T06:09:13;6.37;;;4.10;;
12312;SDS011;6220;53.580;9.758;2022-10-16T06:11:38;5.60;;;3.93;;
12312;SDS011;6220;53.580;9.758;2022-10-16T06:14:04;6.47;;;4.37;;
12312;SDS011;6220;53.580;9.758;2022-10-16T06:16:32;6.17;;;4.27;;
12312;SDS011;6220;53.580;9.758;2022-10-16T06:18:58;7.93;;;4.43;;
12312;SDS011;6220;53.580;9.758;2022-10-16T06:21:25;6.53;;;4.07;;
12312;SDS011;6220;53.580;9.758;2022-10-16T06:23:51;7.57;;;4.20;;
12312;SDS011;6220;53.580;9.758;2022-10-16T06:26:18;6.13;;;3.63;;
12312;SDS011;6220;53.580;9.758;2022-10-16T06:28:44;6.67;;;4.30;;
12312;SDS011;6220;53.580;9.758;2022-10-16T06:31:10;4.80;;;3.80;;
12312;SDS011;6220;53.580;9.758;2022-10-16T06:33:36;7.17;;;3.67;;
12312;SDS011;6220;53.580;9.758;2022-10-16T06:36:04;6.77;;;4.20;;
12312;SDS011;6220;53.580;9.758;2022-10-16T06:38:31;7.17;;;3.80;;
12312;SDS011;6220;53.580;9.758;2022-10-16T06:40:56;5.77;;;3.67;;
12312;SDS011;6220;53.580;9.758;2022-10-16T06:43:22;8.30;;;3.63;;
12312;SDS011;6220;53.580;9.758;2022-10-16T06:45:51;5.80;;;3.80;;
12312;SDS011;6220;53.580;9.758;2022-10-16T06:48:20;6.73;;;4.00;;
12312;SDS011;6220;53.580;9.758;2022-10-16T06:51:05;5.90;;;3.77;;
12312;SDS011;6220;53.580;9.758;2022-10-16T06:53:35;5.03;;;3.67;;
12312;SDS011;6220;53.580;9.758;2022-10-16T06:56:09;5.87;;;4.30;;
12312;SDS011;6220;53.580;9.758;2022-10-16T06:58:35;9.77;;;4.27;;
12312;SDS011;6220;53.580;9.758;2022-10-16T07:01:01;6.47;;;3.77;;
12312;SDS011;6220;53.580;9.758;2022-10-16T07:03:26;7.00;;;4.37;;
12312;SDS011;6220;53.580;9.758;2022-10-16T07:05:51;6.47;;;4.63;;
12312;SDS011;6220;53.580;9.758;2022-10-16T07:08:17;6.90;;;4.40;;
12312;SDS011;6220;53.580;9.758;2022-10-16T07:10:42;8.27;;;4.63;;
12312;SDS011;6220;53.580;9.758;2022-10-16T07:13:07;6.57;;;4.13;;
12312;SDS011;6220;53.580;9.758;2022-10-16T07:15:33;8.20;;;4.47;;
12312;SDS011;6220;53.580;9.758;2022-10-16T07:17:58;7.07;;;5.00;;
12312;SDS011;6220;53.580;9.758;2022-10-16T07:20:24;6.97;;;4.67;;
12312;SDS011;6220;53.580;9.758;2022-10-16T07:22:49;7.13;;;4.50;;
12312;SDS011;6220;53.580;9.758;2022-10-16T07:25:14;7.70;;;4.50;;
12312;SDS011;6220;53.580;9.758;2022-10-16T07:27:39;5.80;;;4.57;;
12312;SDS011;6220;53.580;9.758;2022-10-16T07:30:05;9.13;;;4.83;;
12312;SDS011;6220;53.580;9.758;2022-10-16T07:32:31;7.37;;;4.40;;
12312;SDS011;6220;53.580;9.758;2022-10-16T07:34:56;8.40;;;5.00;;
12312;SDS011;6220;53.580;9.758;2022-10-16T07:37:22;7.17;;;5.03;;
12312;SDS011;6220;53.580;9.758;2022-10-16T07:39:47;5.23;;;4.70;;
12312;SDS011;6220;53.580;9.758;2022-10-16T07:42:12;7.20;;;5.00;;
12312;SDS011;6220;53.580;9.758;2022-10-16T07:44:38;7.93;;;4.77;;
12312;SDS011;6220;53.580;9.758;2022-10-16T07:47:03;7.57;;;4.87;;
12312;SDS011;6220;53.580;9.758;2022-10-16T07:49:28;7.30;;;4.80;;
12312;SDS011;6220;53.580;9.758;2022-10-16T07:51:54;6.90;;;5.17;;
12312;SDS011;6220;53.580;9.758;2022-10-16T07:54:19;6.93;;;5.13;;
12312;SDS011;6220;53.580;9.758;2022-10-16T07:56:44;5.40;;;4.70;;
12312;SDS011;6220;53.580;9.758;2022-10-16T07:59:10;8.00;;;4.70;;
12312;SDS011;6220;53.580;9.758;2022-10-16T08:01:35;9.40;;;4.70;;
12312;SDS011;6220;53.580;9.758;2022-10-16T08:04:00;8.33;;;5.23;;
12312;SDS011;6220;53.580;9.758;2022-10-16T08:06:26;7.80;;;4.70;;
12312;SDS011;6220;53.580;9.758;2022-10-16T08:08:51;5.37;;;4.50;;
12312;SDS011;6220;53.580;9.758;2022-10-16T08:11:17;7.23;;;5.07;;
12312;SDS011;6220;53.580;9.758;2022-10-16T08:13:42;9.13;;;4.77;;
12312;SDS011;6220;53.580;9.758;2022-10-16T08:16:07;5.90;;;4.73;;
12312;SDS011;6220;53.580;9.758;2022-10-16T08:18:38;9.50;;;4.90;;
12312;SDS011;6220;53.580;9.758;2022-10-16T08:21:04;5.50;;;4.27;;
12312;SDS011;6220;53.580;9.758;2022-10-16T08:23:32;5.73;;;3.97;;
12312;SDS011;6220;53.580;9.758;2022-10-16T08:26:01;6.00;;;4.07;;
12312;SDS011;6220;53.580;9.758;2022-10-16T08:28:28;6.77;;;4.00;;
12312;SDS011;6220;53.580;9.758;2022-10-16T08:30:53;6.83;;;4.40;;
12312;SDS011;6220;53.580;9.758;2022-10-16T08:33:19;5.07;;;3.37;;
12312;SDS011;6220;53.580;9.758;2022-10-16T08:35:50;6.20;;;3.80;;
12312;SDS011;6220;53.580;9.758;2022-10-16T08:38:16;6.17;;;3.77;;
12312;SDS011;6220;53.580;9.758;2022-10-16T08:40:41;5.50;;;3.40;;
12312;SDS011;6220;53.580;9.758;2022-10-16T08:48:23;6.83;;;3.30;;
12312;SDS011;6220;53.580;9.758;2022-10-16T08:50:52;6.57;;;3.50;;
12312;SDS011;6220;53.580;9.758;2022-10-16T08:53:52;5.77;;;3.60;;
12312;SDS011;6220;53.580;9.758;2022-10-16T08:56:12;5.07;;;3.00;;
12312;SDS011;6220;53.580;9.758;2022-10-16T08:58:37;5.33;;;3.20;;
12312;SDS011;6220;53.580;9.758;2022-10-16T09:01:03;7.60;;;3.30;;
12312;SDS011;6220;53.580;9.758;2022-10-16T09:03:33;7.80;;;3.40;;
12312;SDS011;6220;53.580;9.758;2022-10-16T09:17:32;6.67;;;2.73;;
12312;SDS011;6220;53.580;9.758;2022-10-16T09:25:43;7.00;;;2.63;;
12312;SDS011;6220;53.580;9.758;2022-10-16T09:28:12;4.17;;;2.40;;
12312;SDS011;6220;53.580;9.758;2022-10-16T09:30:38;6.37;;;2.87;;
12312;SDS011;6220;53.580;9.758;2022-10-16T09:33:04;4.27;;;2.83;;
12312;SDS011;6220;53.580;9.758;2022-10-16T09:35:51;4.80;;;2.20;;
12312;SDS011;6220;53.580;9.758;2022-10-16T09:38:20;5.37;;;2.50;;
12312;SDS011;6220;53.580;9.758;2022-10-16T09:40:54;3.47;;;2.30;;
12312;SDS011;6220;53.580;9.758;2022-10-16T09:43:27;3.17;;;2.07;;
12312;SDS011;6220;53.580;9.758;2022-10-16T09:46:02;4.30;;;2.53;;
12312;SDS011;6220;53.580;9.758;2022-10-16T09:48:48;6.47;;;2.40;;
12312;SDS011;6220;53.580;9.758;2022-10-16T09:51:19;5.53;;;2.10;;
12312;SDS011;6220;53.580;9.758;2022-10-16T09:53:53;4.20;;;2.10;;
12312;SDS011;6220;53.580;9.758;2022-10-16T09:56:24;3.80;;;1.90;;
12312;SDS011;6220;53.580;9.758;2022-10-16T09:58:55;4.93;;;2.17;;
12312;SDS011;6220;53.580;9.758;2022-10-16T10:01:24;5.03;;;2.10;;
12312;SDS011;6220;53.580;9.758;2022-10-16T10:04:10;4.00;;;1.67;;
12312;SDS011;6220;53.580;9.758;2022-10-16T10:06:36;6.93;;;2.10;;
12312;SDS011;6220;53.580;9.758;2022-10-16T10:11:46;5.90;;;2.03;;
12312;SDS011;6220;53.580;9.758;2022-10-16T10:19:40;3.43;;;2.00;;
12312;SDS011;6220;53.580;9.758;2022-10-16T10:22:13;4.77;;;2.10;;
12312;SDS011;6220;53.580;9.758;2022-10-16T10:24:42;6.63;;;2.03;;
12312;SDS011;6220;53.580;9.758;2022-10-16T10:27:11;4.17;;;2.00;;
12312;SDS011;6220;53.580;9.758;2022-10-16T10:29:52;5.50;;;2.13;;
12312;SDS011;6220;53.580;9.758;2022-10-16T10:33:25;5.50;;;2.23;;
12312;SDS011;6220;53.580;9.758;2022-10-16T10:35:34;5.10;;;2.13;;
12312;SDS011;6220;53.580;9.758;2022-10-16T10:38:16;5.30;;;1.93;;
12312;SDS011;6220;53.580;9.758;2022-10-16T10:41:12;3.40;;;2.00;;
12312;SDS011;6220;53.580;9.758;2022-10-16T10:44:14;3.73;;;1.70;;
12312;SDS011;6220;53.580;9.758;2022-10-16T10:47:07;4.13;;;1.90;;
12312;SDS011;6220;53.580;9.758;2022-10-16T10:49:49;4.23;;;1.80;;
12312;SDS011;6220;53.580;9.758;2022-10-16T10:58:29;6.33;;;2.97;;
12312;SDS011;6220;53.580;9.758;2022-10-16T11:04:34;4.83;;;1.63;;
12312;SDS011;6220;53.580;9.758;2022-10-16T11:07:06;5.10;;;1.70;;
12312;SDS011;6220;53.580;9.758;2022-10-16T11:09:38;3.87;;;1.47;;
12312;SDS011;6220;53.580;9.758;2022-10-16T11:17:18;2.80;;;1.30;;
12312;SDS011;6220;53.580;9.758;2022-10-16T11:19:57;4.63;;;2.00;;
12312;SDS011;6220;53.580;9.758;2022-10-16T11:22:43;2.50;;;1.50;;
12312;SDS011;6220;53.580;9.758;2022-10-16T11:25:22;2.13;;;1.30;;
12312;SDS011;6220;53.580;9.758;2022-10-16T11:30:28;5.50;;;1.83;;
12312;SDS011;6220;53.580;9.758;2022-10-16T11:33:10;3.20;;;1.57;;
12312;SDS011;6220;53.580;9.758;2022-10-16T11:38:32;3.00;;;1.63;;
12312;SDS011;6220;53.580;9.758;2022-10-16T11:41:00;6.13;;;1.67;;
12312;SDS011;6220;53.580;9.758;2022-10-16T11:44:00;6.30;;;3.33;;
12312;SDS011;6220;53.580;9.758;2022-10-16T11:46:32;4.23;;;2.03;;
12312;SDS011;6220;53.580;9.758;2022-10-16T11:49:15;7.33;;;1.67;;
12312;SDS011;6220;53.580;9.758;2022-10-16T11:51:45;6.07;;;1.50;;
12312;SDS011;6220;53.580;9.758;2022-10-16T11:54:20;4.03;;;1.67;;
12312;SDS011;6220;53.580;9.758;2022-10-16T11:56:53;6.23;;;1.80;;
12312;SDS011;6220;53.580;9.758;2022-10-16T11:59:29;5.33;;;1.60;;
12312;SDS011;6220;53.580;9.758;2022-10-16T12:04:51;6.70;;;1.60;;
12312;SDS011;6220;53.580;9.758;2022-10-16T12:07:24;7.23;;;1.90;;
12312;SDS011;6220;53.580;9.758;2022-10-16T12:09:53;3.77;;;1.60;;
12312;SDS011;6220;53.580;9.758;2022-10-16T12:15:22;4.57;;;1.47;;
12312;SDS011;6220;53.580;9.758;2022-10-16T12:17:55;3.53;;;1.43;;
12312;SDS011;6220;53.580;9.758;2022-10-16T12:20:22;3.67;;;1.60;;
12312;SDS011;6220;53.580;9.758;2022-10-16T12:25:21;3.97;;;1.67;;
12312;SDS011;6220;53.580;9.758;2022-10-16T12:27:56;6.87;;;1.70;;
12312;SDS011;6220;53.580;9.758;2022-10-16T12:30:40;6.10;;;2.10;;
12312;SDS011;6220;53.580;9.758;2022-10-16T12:33:23;3.60;;;1.80;;
12312;SDS011;6220;53.580;9.758;2022-10-16T12:35:50;5.40;;;1.70;;
12312;SDS011;6220;53.580;9.758;2022-10-16T12:38:20;4.00;;;1.60;;
12312;SDS011;6220;53.580;9.758;2022-10-16T12:41:08;5.07;;;1.80;;
12312;SDS011;6220;53.580;9.758;2022-10-16T12:43:45;3.73;;;1.47;;
12312;SDS011;6220;53.580;9.758;2022-10-16T12:48:37;2.93;;;1.70;;
12312;SDS011;6220;53.580;9.758;2022-10-16T12:51:22;5.23;;;1.70;;
12312;SDS011;6220;53.580;9.758;2022-10-16T12:54:34;6.43;;;2.33;;
12312;SDS011;6220;53.580;9.758;2022-10-16T12:56:39;4.33;;;1.73;;
12312;SDS011;6220;53.580;9.758;2022-10-16T12:59:12;4.67;;;1.33;;
12312;SDS011;6220;53.580;9.758;2022-10-16T13:15:15;4.57;;;1.40;;
12312;SDS011;6220;53.580;9.758;2022-10-16T13:21:04;4.40;;;1.70;;
12312;SDS011;6220;53.580;9.758;2022-10-16T13:23:34;5.53;;;1.87;;
12312;SDS011;6220;53.580;9.758;2022-10-16T13:26:09;5.97;;;1.83;;
12312;SDS011;6220;53.580;9.758;2022-10-16T13:28:38;6.23;;;2.30;;
12312;SDS011;6220;53.580;9.758;2022-10-16T13:31:04;5.10;;;2.60;;
12312;SDS011;6220;53.580;9.758;2022-10-16T13:35:58;4.90;;;1.70;;
12312;SDS011;6220;53.580;9.758;2022-10-16T13:38:25;4.10;;;1.50;;
12312;SDS011;6220;53.580;9.758;2022-10-16T13:41:01;4.43;;;1.50;;
12312;SDS011;6220;53.580;9.758;2022-10-16T13:43:54;5.27;;;1.70;;
12312;SDS011;6220;53.580;9.758;2022-10-16T13:46:22;6.23;;;1.93;;
12312;SDS011;6220;53.580;9.758;2022-10-16T13:48:58;3.87;;;1.47;;
12312;SDS011;6220;53.580;9.758;2022-10-16T13:51:24;4.07;;;1.60;;
12312;SDS011;6220;53.580;9.758;2022-10-16T13:53:50;4.23;;;1.70;;
12312;SDS011;6220;53.580;9.758;2022-10-16T13:56:20;6.33;;;1.60;;
12312;SDS011;6220;53.580;9.758;2022-10-16T13:58:46;3.87;;;1.50;;
12312;SDS011;6220;53.580;9.758;2022-10-16T14:01:19;5.07;;;1.60;;
12312;SDS011;6220;53.580;9.758;2022-10-16T14:03:46;3.67;;;1.50;;
12312;SDS011;6220;53.580;9.758;2022-10-16T14:06:12;7.63;;;2.90;;
12312;SDS011;6220;53.580;9.758;2022-10-16T14:08:52;5.23;;;2.17;;
12312;SDS011;6220;53.580;9.758;2022-10-16T14:11:23;6.53;;;1.73;;
12312;SDS011;6220;53.580;9.758;2022-10-16T14:13:49;6.50;;;2.30;;
12312;SDS011;6220;53.580;9.758;2022-10-16T14:16:19;6.23;;;2.43;;
12312;SDS011;6220;53.580;9.758;2022-10-16T14:18:49;6.50;;;1.90;;
12312;SDS011;6220;53.580;9.758;2022-10-16T14:21:20;7.40;;;1.83;;
12312;SDS011;6220;53.580;9.758;2022-10-16T14:23:45;5.67;;;2.30;;
12312;SDS011;6220;53.580;9.758;2022-10-16T14:26:12;5.47;;;1.90;;
12312;SDS011;6220;53.580;9.758;2022-10-16T14:28:39;3.93;;;1.87;;
12312;SDS011;6220;53.580;9.758;2022-10-16T14:33:53;4.23;;;2.07;;
12312;SDS011;6220;53.580;9.758;2022-10-16T14:36:19;5.87;;;1.90;;
12312;SDS011;6220;53.580;9.758;2022-10-16T14:38:49;4.20;;;1.57;;
12312;SDS011;6220;53.580;9.758;2022-10-16T14:41:22;5.53;;;2.67;;
12312;SDS011;6220;53.580;9.758;2022-10-16T14:43:51;5.53;;;1.67;;
12312;SDS011;6220;53.580;9.758;2022-10-16T14:46:19;7.57;;;1.40;;
12312;SDS011;6220;53.580;9.758;2022-10-16T14:48:46;7.23;;;1.93;;
12312;SDS011;6220;53.580;9.758;2022-10-16T14:51:17;3.10;;;1.70;;
12312;SDS011;6220;53.580;9.758;2022-10-16T14:53:43;3.97;;;1.60;;
12312;SDS011;6220;53.580;9.758;2022-10-16T14:56:09;7.20;;;1.40;;
12312;SDS011;6220;53.580;9.758;2022-10-16T14:58:41;6.90;;;1.93;;
12312;SDS011;6220;53.580;9.758;2022-10-16T15:01:07;4.27;;;1.43;;
12312;SDS011;6220;53.580;9.758;2022-10-16T15:03:35;4.17;;;1.70;;
12312;SDS011;6220;53.580;9.758;2022-10-16T15:06:01;8.13;;;2.07;;
12312;SDS011;6220;53.580;9.758;2022-10-16T15:08:26;7.53;;;2.17;;
12312;SDS011;6220;53.580;9.758;2022-10-16T15:10:51;3.97;;;1.50;;
12312;SDS011;6220;53.580;9.758;2022-10-16T15:13:17;9.20;;;1.80;;
12312;SDS011;6220;53.580;9.758;2022-10-16T15:15:43;4.83;;;1.70;;
12312;SDS011;6220;53.580;9.758;2022-10-16T15:18:10;6.70;;;1.60;;
12312;SDS011;6220;53.580;9.758;2022-10-16T15:20:36;4.73;;;1.73;;
12312;SDS011;6220;53.580;9.758;2022-10-16T15:23:02;7.37;;;3.43;;
12312;SDS011;6220;53.580;9.758;2022-10-16T15:28:08;4.73;;;1.63;;
12312;SDS011;6220;53.580;9.758;2022-10-16T15:30:34;4.80;;;1.33;;
12312;SDS011;6220;53.580;9.758;2022-10-16T15:33:00;4.53;;;1.60;;
12312;SDS011;6220;53.580;9.758;2022-10-16T15:35:25;5.37;;;1.70;;
12312;SDS011;6220;53.580;9.758;2022-10-16T15:37:51;6.03;;;1.70;;
12312;SDS011;6220;53.580;9.758;2022-10-16T15:40:17;4.67;;;1.47;;
12312;SDS011;6220;53.580;9.758;2022-10-16T15:42:42;4.33;;;1.80;;
12312;SDS011;6220;53.580;9.758;2022-10-16T15:45:08;6.03;;;1.97;;
12312;SDS011;6220;53.580;9.758;2022-10-16T15:47:34;4.17;;;1.73;;
12312;SDS011;6220;53.580;9.758;2022-10-16T15:50:00;3.93;;;1.90;;
12312;SDS011;6220;53.580;9.758;2022-10-16T15:52:25;8.23;;;2.20;;
12312;SDS011;6220;53.580;9.758;2022-10-16T15:54:51;4.27;;;1.87;;
12312;SDS011;6220;53.580;9.758;2022-10-16T15:57:16;4.57;;;2.00;;
12312;SDS011;6220;53.580;9.758;2022-10-16T15:59:41;5.57;;;1.80;;
12312;SDS011;6220;53.580;9.758;2022-10-16T16:02:08;5.90;;;1.67;;
12312;SDS011;6220;53.580;9.758;2022-10-16T16:04:33;3.77;;;1.63;;
12312;SDS011;6220;53.580;9.758;2022-10-16T16:06:59;3.53;;;1.73;;
12312;SDS011;6220;53.580;9.758;2022-10-16T16:09:26;4.97;;;2.13;;
12312;SDS011;6220;53.580;9.758;2022-10-16T16:11:51;5.37;;;2.00;;
12312;SDS011;6220;53.580;9.758;2022-10-16T16:14:17;6.93;;;2.47;;
12312;SDS011;6220;53.580;9.758;2022-10-16T16:16:42;7.07;;;2.27;;
12312;SDS011;6220;53.580;9.758;2022-10-16T16:19:08;6.77;;;2.47;;
12312;SDS011;6220;53.580;9.758;2022-10-16T16:21:34;8.80;;;2.53;;
12312;SDS011;6220;53.580;9.758;2022-10-16T16:24:00;7.37;;;2.03;;
12312;SDS011;6220;53.580;9.758;2022-10-16T16:26:28;7.70;;;2.47;;
12312;SDS011;6220;53.580;9.758;2022-10-16T16:28:58;6.47;;;2.10;;
12312;SDS011;6220;53.580;9.758;2022-10-16T16:31:25;7.30;;;2.10;;
12312;SDS011;6220;53.580;9.758;2022-10-16T16:33:51;6.03;;;2.80;;
12312;SDS011;6220;53.580;9.758;2022-10-16T16:36:17;4.33;;;2.53;;
12312;SDS011;6220;53.580;9.758;2022-10-16T16:38:45;5.07;;;2.33;;
12312;SDS011;6220;53.580;9.758;2022-10-16T16:41:18;4.40;;;2.30;;
12312;SDS011;6220;53.580;9.758;2022-10-16T16:43:45;6.53;;;2.10;;
12312;SDS011;6220;53.580;9.758;2022-10-16T16:46:12;5.90;;;3.10;;
12312;SDS011;6220;53.580;9.758;2022-10-16T16:48:37;5.17;;;2.60;;
12312;SDS011;6220;53.580;9.758;2022-10-16T16:51:07;7.93;;;3.23;;
12312;SDS011;6220;53.580;9.758;2022-10-16T16:53:34;4.77;;;2.50;;
12312;SDS011;6220;53.580;9.758;2022-10-16T16:56:01;7.00;;;2.67;;